Time;durP1;ratioP1;P1;durP2;ratioP2;P2;SDS_P1;SDS_P2;PMS_P1;PMS_P2;Temp;Humidity;BMP_temperature;BMP_pressure;BME280_temperature;BME280_humidity;BME280_pressure;Samples;Min_cycle;Max_cycle;Signal;HPM_P1;HPM_P2
2022/10/28 00:01:04;;;;;;;34.75;7.72;;;;;;;20.16;100.00;98685.88;5019416;28;20067;-62
2022/10/28 00:03:30;;;;;;;38.03;8.48;;;;;;;20.70;100.00;98698.03;5017439;28;20112;-61
2022/10/28 00:06:10;;;;;;;39.05;9.98;;;;;;;19.32;100.00;98711.78;5017892;28;20457;-60
2022/10/28 00:08:36;;;;;;;50.63;10.98;;;;;;;19.73;100.00;98705.56;5020058;28;20212;-59
2022/10/28 00:11:06;;;;;;;40.22;8.85;;;;;;;19.58;100.00;98701.28;5015683;28;20726;-58
2022/10/28 00:13:32;;;;;;;40.28;8.35;;;;;;;19.64;100.00;98706.16;5018392;28;20504;-60
2022/10/28 00:16:10;;;;;;;53.22;9.98;;;;;;;19.50;100.00;98707.09;5015242;28;20040;-59
2022/10/28 00:18:36;;;;;;;47.88;9.52;;;;;;;18.28;100.00;98704.19;5019676;28;20034;-59
2022/10/28 00:21:05;;;;;;;34.70;7.78;;;;;;;19.11;100.00;98710.53;5019032;28;20671;-58
2022/10/28 00:23:30;;;;;;;45.72;10.35;;;;;;;19.54;100.00;98715.66;5019899;28;20083;-59
2022/10/28 00:26:03;;;;;;;42.13;10.05;;;;;;;18.29;100.00;98711.19;5020119;28;20041;-59
2022/10/28 00:28:28;;;;;;;32.55;8.20;;;;;;;19.12;100.00;98714.88;5019795;28;20029;-59
2022/10/28 00:30:54;;;;;;;41.60;10.35;;;;;;;18.57;100.00;98720.03;5018796;28;20048;-58
2022/10/28 00:33:19;;;;;;;41.15;9.75;;;;;;;18.59;100.00;98717.31;5018529;28;20043;-61
2022/10/28 00:35:44;;;;;;;54.28;11.98;;;;;;;18.64;100.00;98721.34;5017219;28;20037;-60
2022/10/28 00:38:10;;;;;;;42.70;10.48;;;;;;;18.43;100.00;98717.41;5019014;28;20032;-61
2022/10/28 00:40:35;;;;;;;47.97;11.30;;;;;;;18.50;100.00;98709.00;5018914;28;20034;-59
2022/10/28 00:43:00;;;;;;;33.45;7.93;;;;;;;19.04;100.00;98704.78;5019844;28;20050;-62
2022/10/28 00:45:26;;;;;;;47.78;10.52;;;;;;;19.05;100.00;98704.69;5018803;28;20434;-59
2022/10/28 00:47:56;;;;;;;46.22;11.02;;;;;;;18.65;100.00;98717.75;5018490;28;20021;-59
2022/10/28 00:50:40;;;;;;;34.45;8.05;;;;;;;19.22;100.00;98705.38;5017939;28;20052;-60
2022/10/28 00:53:14;;;;;;;43.53;10.40;;;;;;;18.77;100.00;98710.03;5019653;28;20032;-58
2022/10/28 00:55:41;;;;;;;44.95;11.38;;;;;;;18.56;100.00;98705.13;5018731;28;20052;-59
2022/10/28 00:58:08;;;;;;;49.08;11.32;;;;;;;18.71;100.00;98699.81;5018970;28;20029;-59
2022/10/28 01:00:33;;;;;;;34.05;7.57;;;;;;;19.74;100.00;98696.69;5018649;28;20091;-60
2022/10/28 01:02:59;;;;;;;43.45;9.23;;;;;;;19.61;100.00;98701.03;5018821;28;20045;-61
2022/10/28 01:05:28;;;;;;;38.45;8.27;;;;;;;19.69;100.00;98709.34;5017794;28;20053;-61
2022/10/28 01:07:59;;;;;;;39.28;9.00;;;;;;;19.47;100.00;98709.09;5019332;28;20021;-60
2022/10/28 01:10:54;;;;;;;33.95;8.35;;;;;;;18.87;100.00;98704.06;5018785;28;20682;-62
2022/10/28 01:13:37;;;;;;;47.53;9.10;;;;;;;19.27;100.00;98711.22;4997166;28;20140;-61
2022/10/28 01:16:17;;;;;;;34.15;7.28;;;;;;;20.57;100.00;98712.13;5017858;28;20124;-58
2022/10/28 01:19:11;;;;;;;39.35;9.05;;;;;;;19.42;100.00;98712.84;5018729;28;20052;-58
2022/10/28 01:22:08;;;;;;;35.85;8.63;;;;;;;18.40;100.00;98717.63;5018205;28;20190;-58
2022/10/28 01:24:57;;;;;;;35.22;8.75;;;;;;;18.16;100.00;98715.53;5019041;28;20052;-58
2022/10/28 01:27:47;;;;;;;41.58;9.25;;;;;;;19.10;100.00;98711.47;5018507;28;20164;-59
2022/10/28 01:30:18;;;;;;;38.55;9.45;;;;;;;18.50;100.00;98709.00;5017609;28;20025;-57
2022/10/28 01:32:53;;;;;;;49.45;9.93;;;;;;;18.56;100.00;98709.56;5019171;28;20037;-58
2022/10/28 01:35:26;;;;;;;46.28;10.55;;;;;;;18.18;100.00;98696.91;5018550;28;20028;-61
2022/10/28 01:37:59;;;;;;;39.53;10.75;;;;;;;18.16;100.00;98699.69;5019356;28;20087;-58
2022/10/28 01:40:32;;;;;;;35.70;8.35;;;;;;;18.94;100.00;98699.25;5018434;28;20388;-59
2022/10/28 01:43:22;;;;;;;39.80;9.18;;;;;;;19.14;100.00;98703.25;5018953;28;20026;-60
2022/10/28 01:45:56;;;;;;;38.60;8.63;;;;;;;19.19;100.00;98703.81;5018151;28;20045;-57
2022/10/28 01:48:46;;;;;;;35.22;8.82;;;;;;;18.82;100.00;98705.31;5018853;28;20569;-58
2022/10/28 01:51:25;;;;;;;45.00;9.40;;;;;;;19.24;100.00;98708.78;5017149;28;20655;-59
2022/10/28 01:53:54;;;;;;;28.88;7.10;;;;;;;19.72;100.00;98703.84;5018727;28;20060;-61
2022/10/28 01:56:34;;;;;;;43.28;9.57;;;;;;;17.99;100.00;98707.75;5018122;28;20041;-59
2022/10/28 01:59:02;;;;;;;38.22;9.18;;;;;;;18.49;100.00;98701.19;5018542;28;20044;-61
2022/10/28 02:01:29;;;;;;;43.05;9.70;;;;;;;18.33;100.00;98695.16;5017481;28;20064;-59
2022/10/28 02:03:56;;;;;;;42.05;9.50;;;;;;;17.84;100.00;98694.50;5018475;28;20039;-58
2022/10/28 02:06:26;;;;;;;36.90;8.07;;;;;;;18.74;100.00;98697.00;5017723;28;20457;-59
2022/10/28 02:08:51;;;;;;;51.20;10.30;;;;;;;18.58;100.00;98687.41;5018113;28;20017;-59
2022/10/28 02:11:33;;;;;;;45.80;9.90;;;;;;;18.85;100.00;98679.53;5017578;28;20042;-62
2022/10/28 02:14:28;;;;;;;40.80;9.57;;;;;;;18.44;100.00;98680.34;5018401;28;20029;-61
2022/10/28 02:17:17;;;;;;;43.47;9.25;;;;;;;18.72;100.00;98677.75;5017541;28;20251;-58
2022/10/28 02:19:48;;;;;;;46.08;8.52;;;;;;;18.52;100.00;98679.84;5018093;28;20029;-58
2022/10/28 02:22:25;;;;;;;37.70;8.73;;;;;;;18.13;100.00;98677.91;5018048;28;20072;-58
2022/10/28 02:25:18;;;;;;;42.15;9.55;;;;;;;18.65;100.00;98675.47;5017870;28;20025;-58
2022/10/28 02:27:46;;;;;;;40.30;7.72;;;;;;;19.01;100.00;98671.47;5020498;28;20053;-59
2022/10/28 02:30:20;;;;;;;49.15;9.38;;;;;;;18.68;100.00;98664.72;5021235;28;20059;-59
2022/10/28 02:32:51;;;;;;;37.40;9.15;;;;;;;19.07;100.00;98655.19;5022176;28;20033;-62
2022/10/28 02:35:23;;;;;;;33.67;7.47;;;;;;;19.28;100.00;98657.41;5021501;28;20453;-60
2022/10/28 02:37:52;;;;;;;33.92;8.75;;;;;;;18.91;100.00;98654.50;5022137;28;20120;-60
2022/10/28 02:40:23;;;;;;;38.03;8.23;;;;;;;19.17;100.00;98654.59;5020258;28;20650;-58
2022/10/28 02:42:53;;;;;;;41.65;8.98;;;;;;;19.02;100.00;98667.88;5022000;28;20030;-60
2022/10/28 02:45:24;;;;;;;28.48;7.10;;;;;;;19.53;100.00;98661.03;5021102;28;20164;-58
2022/10/28 02:48:05;;;;;;;36.05;6.88;;;;;;;20.07;100.00;98671.50;5022165;28;20021;-58
2022/10/28 02:50:37;;;;;;;36.40;7.97;;;;;;;19.47;100.00;98669.41;5021160;28;20037;-60
2022/10/28 02:53:10;;;;;;;37.83;8.73;;;;;;;18.53;100.00;98665.72;5021494;28;20125;-61
2022/10/28 02:55:41;;;;;;;31.83;6.43;;;;;;;20.15;100.00;98668.31;5021225;28;20133;-59
2022/10/28 02:58:07;;;;;;;41.83;8.57;;;;;;;19.50;100.00;98669.16;5021704;28;20028;-60
2022/10/28 03:00:32;;;;;;;35.00;8.10;;;;;;;18.91;100.00;98673.00;5020621;28;20033;-59
2022/10/28 03:02:58;;;;;;;38.15;8.20;;;;;;;19.45;100.00;98680.06;5021909;28;20029;-61
2022/10/28 03:05:23;;;;;;;38.53;8.10;;;;;;;19.25;100.00;98678.75;5020994;28;20057;-59
2022/10/28 03:07:48;;;;;;;38.13;8.82;;;;;;;17.73;100.00;98670.56;5021874;28;20026;-61
2022/10/28 03:10:14;;;;;;;38.85;9.20;;;;;;;18.78;100.00;98664.13;5020868;28;20136;-58
2022/10/28 03:12:39;;;;;;;43.40;9.43;;;;;;;19.03;100.00;98669.56;5021204;28;20032;-58
2022/10/28 03:15:05;;;;;;;38.90;9.52;;;;;;;18.71;100.00;98662.81;5021835;28;20036;-59
2022/10/28 03:17:30;;;;;;;46.85;9.90;;;;;;;18.47;100.00;98666.06;5020775;28;20046;-59
2022/10/28 03:19:56;;;;;;;37.28;9.32;;;;;;;19.37;100.00;98659.44;5021182;28;20438;-57
2022/10/28 03:22:21;;;;;;;35.72;7.75;;;;;;;19.16;100.00;98658.19;5020748;28;20047;-59
2022/10/28 03:24:46;;;;;;;35.17;6.80;;;;;;;19.62;100.00;98663.06;5020934;28;20025;-60
2022/10/28 03:27:11;;;;;;;44.75;8.70;;;;;;;19.36;100.00;98664.81;5020776;28;20022;-58
2022/10/28 03:29:37;;;;;;;51.63;7.82;;;;;;;20.14;100.00;98664.78;5020539;28;20029;-59
2022/10/28 03:32:02;;;;;;;30.50;6.88;;;;;;;20.42;100.00;98669.03;5019700;28;20737;-60
2022/10/28 03:34:28;;;;;;;43.80;8.25;;;;;;;19.58;100.00;98664.22;5021101;28;20048;-59
2022/10/28 03:36:53;;;;;;;31.15;8.05;;;;;;;18.10;100.00;98663.06;5020642;28;20070;-59
2022/10/28 03:39:18;;;;;;;46.03;9.23;;;;;;;18.24;100.00;98664.88;5019874;28;20041;-59
2022/10/28 03:41:44;;;;;;;47.10;9.43;;;;;;;18.10;100.00;98660.44;5019938;28;20033;-59
2022/10/28 03:44:09;;;;;;;34.65;8.10;;;;;;;18.59;100.00;98660.03;5021219;28;20044;-58
2022/10/28 03:46:34;;;;;;;33.90;6.90;;;;;;;19.00;100.00;98669.75;5020325;28;20034;-60
2022/10/28 03:49:00;;;;;;;40.17;8.60;;;;;;;19.04;100.00;98668.63;5020751;28;20040;-61
2022/10/28 03:51:25;;;;;;;48.17;9.35;;;;;;;18.46;100.00;98665.22;5018803;28;20416;-59
2022/10/28 03:53:50;;;;;;;43.80;9.48;;;;;;;18.35;100.00;98672.13;5019203;28;20874;-61
2022/10/28 03:56:16;;;;;;;34.47;8.57;;;;;;;17.75;100.00;98663.38;5018010;28;20042;-60
2022/10/28 03:58:41;;;;;;;39.03;9.48;;;;;;;18.08;100.00;98659.69;5019405;28;20075;-62
2022/10/28 04:01:07;;;;;;;54.30;10.38;;;;;;;18.61;100.00;98655.50;5019176;28;20044;-60
2022/10/28 04:03:32;;;;;;;38.08;8.23;;;;;;;18.54;100.00;98648.88;5021045;28;20599;-60
2022/10/28 04:05:57;;;;;;;36.42;8.35;;;;;;;18.47;100.00;98660.78;5019914;28;20051;-59
2022/10/28 04:08:23;;;;;;;27.55;6.80;;;;;;;19.06;100.00;98663.25;5020495;28;20029;-60
2022/10/28 04:10:48;;;;;;;35.65;8.05;;;;;;;19.04;100.00;98660.69;5019468;28;20584;-60
2022/10/28 04:13:14;;;;;;;41.08;7.22;;;;;;;19.33;100.00;98659.72;5020157;28;20573;-59
2022/10/28 04:15:40;;;;;;;28.92;7.57;;;;;;;18.92;100.00;98661.50;5019708;28;20042;-60
2022/10/28 04:18:05;;;;;;;36.30;8.30;;;;;;;19.29;100.00;98656.44;5020248;28;20596;-59
2022/10/28 04:20:31;;;;;;;29.08;7.18;;;;;;;19.09;100.00;98664.84;5019897;28;20123;-57
2022/10/28 04:22:56;;;;;;;27.35;6.45;;;;;;;19.46;100.00;98660.59;5020616;28;20490;-60
2022/10/28 04:25:23;;;;;;;38.25;8.32;;;;;;;19.19;100.00;98656.19;5019326;28;20033;-58
2022/10/28 04:27:48;;;;;;;32.08;8.50;;;;;;;18.24;100.00;98659.59;5018977;28;20026;-61
2022/10/28 04:30:14;;;;;;;41.53;9.38;;;;;;;18.90;100.00;98665.19;5019404;28;20036;-59
2022/10/28 04:32:40;;;;;;;43.83;9.15;;;;;;;18.65;100.00;98662.25;5019668;28;20037;-60
2022/10/28 04:35:07;;;;;;;33.45;8.07;;;;;;;17.57;100.00;98659.22;5019938;28;20483;-58
2022/10/28 04:37:32;;;;;;;47.03;9.45;;;;;;;17.69;100.00;98664.59;5019243;28;20748;-61
2022/10/28 04:39:58;;;;;;;33.53;8.13;;;;;;;17.82;100.00;98656.81;5019542;28;20121;-59
2022/10/28 04:42:23;;;;;;;34.70;7.93;;;;;;;18.72;100.00;98659.25;5018764;28;20361;-58
2022/10/28 04:44:48;;;;;;;37.47;7.55;;;;;;;18.93;100.00;98668.47;5020070;28;20028;-60
2022/10/28 04:47:14;;;;;;;39.20;9.30;;;;;;;18.62;100.00;98659.84;5019656;28;20033;-58
2022/10/28 04:49:39;;;;;;;48.60;10.68;;;;;;;18.77;100.00;98665.94;5018988;28;20037;-59
2022/10/28 04:52:05;;;;;;;37.10;8.57;;;;;;;18.36;100.00;98657.97;5019165;28;20159;-58
2022/10/28 04:54:30;;;;;;;34.08;8.40;;;;;;;18.90;100.00;98668.69;5020003;28;20021;-58
2022/10/28 04:56:56;;;;;;;23.25;7.00;;;;;;;19.76;100.00;98670.94;5019321;28;20045;-59
2022/10/28 04:59:21;;;;;;;33.53;6.70;;;;;;;20.29;100.00;98670.84;5020200;28;20587;-59
2022/10/28 05:01:46;;;;;;;41.55;10.40;;;;;;;19.71;100.00;98678.31;5018697;28;20742;-62
2022/10/28 05:04:12;;;;;;;60.28;15.32;;;;;;;19.25;100.00;98674.31;5015326;28;20021;-59
2022/10/28 05:06:37;;;;;;;59.03;16.50;;;;;;;19.15;100.00;98667.94;5015083;28;20144;-59
2022/10/28 05:09:03;;;;;;;82.47;23.77;;;;;;;19.42;100.00;98664.41;5017689;28;20123;-61
2022/10/28 05:11:28;;;;;;;74.55;19.27;;;;;;;18.56;100.00;98672.56;5018851;28;20029;-61
2022/10/28 05:13:53;;;;;;;54.53;13.60;;;;;;;18.78;100.00;98674.72;5018705;28;20036;-60
2022/10/28 05:16:19;;;;;;;31.40;7.10;;;;;;;19.71;100.00;98673.03;5019051;28;20108;-60
2022/10/28 05:18:45;;;;;;;37.65;9.70;;;;;;;18.17;100.00;98664.41;5018033;28;20945;-59
2022/10/28 05:21:10;;;;;;;42.88;9.90;;;;;;;18.46;100.00;98669.69;5018389;28;20919;-60
2022/10/28 05:23:35;;;;;;;42.95;11.45;;;;;;;19.07;100.00;98678.16;5019117;28;20357;-59
2022/10/28 05:26:01;;;;;;;43.58;9.55;;;;;;;19.66;100.00;98667.19;5018651;28;20073;-58
2022/10/28 05:28:26;;;;;;;40.90;9.23;;;;;;;19.02;100.00;98678.47;5019043;28;20021;-59
2022/10/28 05:30:51;;;;;;;36.60;6.82;;;;;;;20.55;100.00;98687.53;5013016;28;20103;-59
2022/10/28 05:33:17;;;;;;;31.88;7.47;;;;;;;20.52;100.00;98686.91;5016897;28;20025;-58
2022/10/28 05:35:42;;;;;;;42.88;10.82;;;;;;;18.28;100.00;98687.50;5017773;28;20033;-60
2022/10/28 05:38:07;;;;;;;44.22;11.77;;;;;;;18.62;100.00;98680.13;5018761;28;20029;-58
2022/10/28 05:40:33;;;;;;;41.83;12.02;;;;;;;18.92;100.00;98677.34;5018049;28;20033;-62
2022/10/28 05:43:00;;;;;;;44.40;11.32;;;;;;;19.21;100.00;98682.56;5018575;28;20112;-59
2022/10/28 05:45:25;;;;;;;35.17;9.38;;;;;;;19.90;100.00;98679.75;5017681;28;20056;-59
2022/10/28 05:47:51;;;;;;;44.15;12.23;;;;;;;19.40;100.00;98677.72;5018738;28;20045;-58
2022/10/28 05:50:17;;;;;;;50.63;13.38;;;;;;;18.36;100.00;98673.81;5017795;28;20033;-61
2022/10/28 05:52:47;;;;;;;56.50;13.68;;;;;;;18.95;100.00;98673.66;5016191;28;20033;-60
2022/10/28 05:55:13;;;;;;;49.40;12.68;;;;;;;18.98;100.00;98676.09;5014836;28;20104;-58
2022/10/28 05:57:39;;;;;;;42.65;11.65;;;;;;;18.80;100.00;98670.16;5017881;28;20036;-62
2022/10/28 06:00:05;;;;;;;45.30;11.95;;;;;;;19.98;100.00;98669.50;5017641;28;20025;-61
2022/10/28 06:02:30;;;;;;;46.75;11.30;;;;;;;20.48;100.00;98683.63;5017301;28;20026;-59
2022/10/28 06:04:55;;;;;;;58.42;12.10;;;;;;;20.41;100.00;98685.84;5015802;28;20025;-58
2022/10/28 06:07:21;;;;;;;62.00;12.05;;;;;;;21.04;100.00;98683.16;5016449;28;20033;-60
2022/10/28 06:09:46;;;;;;;56.10;13.70;;;;;;;20.90;100.00;98692.16;5015851;28;20034;-59
2022/10/28 06:12:12;;;;;;;50.20;13.60;;;;;;;20.30;100.00;98692.88;5014981;28;20810;-59
2022/10/28 06:14:37;;;;;;;54.63;15.60;;;;;;;18.12;100.00;98698.16;5016213;28;20057;-59
2022/10/28 06:17:03;;;;;;;58.63;18.92;;;;;;;18.84;100.00;98695.50;5014994;28;20064;-59
2022/10/28 06:19:28;;;;;;;73.50;18.90;;;;;;;19.23;100.00;98691.22;5015698;28;20109;-59
2022/10/28 06:21:53;;;;;;;48.35;13.13;;;;;;;19.46;100.00;98692.34;5016737;28;20065;-58
2022/10/28 06:24:19;;;;;;;42.72;9.50;;;;;;;20.43;100.00;98704.31;5017608;28;20707;-60
2022/10/28 06:26:44;;;;;;;51.83;9.80;;;;;;;21.43;100.00;98712.19;5016929;28;20057;-61
2022/10/28 06:29:10;;;;;;;40.25;9.90;;;;;;;21.10;100.00;98722.53;5017786;28;20033;-61
2022/10/28 06:31:39;;;;;;;39.47;11.57;;;;;;;19.19;100.00;98729.41;5017035;28;20037;-62
2022/10/28 06:34:04;;;;;;;40.45;12.80;;;;;;;19.20;100.00;98723.16;5018354;28;20029;-60
2022/10/28 06:36:30;;;;;;;44.30;12.73;;;;;;;19.21;100.00;98720.41;5017618;28;20049;-59
2022/10/28 06:38:55;;;;;;;41.28;10.80;;;;;;;19.90;100.00;98722.09;5017914;28;20042;-57
2022/10/28 06:41:20;;;;;;;36.15;11.57;;;;;;;19.06;100.00;98721.41;5017525;28;20044;-57
2022/10/28 06:43:46;;;;;;;43.80;13.00;;;;;;;19.72;100.00;98714.44;5017991;28;20492;-58
2022/10/28 06:46:11;;;;;;;40.95;12.10;;;;;;;20.31;100.00;98729.88;5017861;28;20045;-59
2022/10/28 06:48:36;;;;;;;28.60;9.35;;;;;;;19.88;100.00;98734.59;5018155;28;20025;-59
2022/10/28 06:51:02;;;;;;;52.10;12.02;;;;;;;18.57;100.00;98741.19;5017175;28;20041;-59
2022/10/28 06:53:27;;;;;;;41.60;10.55;;;;;;;18.27;100.00;98738.63;5018181;28;20049;-59
2022/10/28 06:55:54;;;;;;;37.78;11.23;;;;;;;18.91;100.00;98744.38;5017487;28;20161;-60
2022/10/28 06:58:19;;;;;;;45.22;12.52;;;;;;;19.29;100.00;98745.53;5017592;28;20048;-60
2022/10/28 07:00:44;;;;;;;36.40;11.18;;;;;;;18.86;100.00;98751.75;5017237;28;20034;-60
2022/10/28 07:03:10;;;;;;;48.05;13.52;;;;;;;19.04;100.00;98740.03;5017736;28;20033;-58
2022/10/28 07:05:35;;;;;;;45.10;13.20;;;;;;;18.87;100.00;98748.16;5017635;28;20041;-59
2022/10/28 07:08:01;;;;;;;50.85;13.48;;;;;;;19.19;100.00;98740.81;5017640;28;20064;-59
2022/10/28 07:10:26;;;;;;;40.05;12.75;;;;;;;18.44;100.00;98750.81;5016801;28;20068;-60
2022/10/28 07:12:52;;;;;;;44.92;13.70;;;;;;;19.05;100.00;98736.41;5018823;28;20017;-59
2022/10/28 07:15:17;;;;;;;58.17;14.07;;;;;;;18.52;100.00;98737.97;5020543;28;20053;-59
2022/10/28 07:17:43;;;;;;;43.30;11.05;;;;;;;18.92;100.00;98748.72;5021679;28;20156;-59
2022/10/28 07:20:09;;;;;;;39.50;8.68;;;;;;;20.72;100.00;98751.81;5020617;28;20025;-60
2022/10/28 07:22:34;;;;;;;44.88;10.60;;;;;;;20.54;100.00;98762.69;5021894;28;20079;-63
2022/10/28 07:24:59;;;;;;;38.28;12.27;;;;;;;19.98;100.00;98756.88;5021032;28;20034;-60
2022/10/28 07:27:25;;;;;;;44.63;13.55;;;;;;;20.36;100.00;98756.88;5020577;28;20056;-61
2022/10/28 07:29:50;;;;;;;49.97;13.85;;;;;;;21.04;100.00;98753.94;5021031;28;20373;-60
2022/10/28 07:32:16;;;;;;;37.30;12.50;;;;;;;21.20;100.00;98751.03;5020916;28;20038;-61
2022/10/28 07:34:41;;;;;;;32.92;8.38;;;;;;;21.91;100.00;98757.31;5021176;28;20376;-59
2022/10/28 07:37:06;;;;;;;45.97;12.05;;;;;;;20.45;100.00;98754.53;5020730;28;20132;-58
2022/10/28 07:39:32;;;;;;;45.80;13.13;;;;;;;20.38;100.00;98727.63;5020096;28;20024;-58
2022/10/28 07:41:57;;;;;;;50.97;13.18;;;;;;;19.98;100.00;98691.50;5020327;28;20041;-58
2022/10/28 07:44:22;;;;;;;46.35;13.05;;;;;;;20.09;100.00;98659.00;5021215;28;20013;-60
2022/10/28 07:46:48;;;;;;;44.97;14.00;;;;;;;20.05;100.00;98651.34;5020467;28;20041;-58
2022/10/28 07:49:16;;;;;;;47.90;12.95;;;;;;;20.56;100.00;98645.97;5020932;28;20040;-58
2022/10/28 07:51:41;;;;;;;34.03;10.88;;;;;;;19.71;100.00;98654.50;5034991;28;20041;-59
2022/10/28 07:54:07;;;;;;;46.33;12.30;;;;;;;19.30;100.00;98650.22;5020320;28;21061;-59
2022/10/28 07:56:32;;;;;;;41.88;11.93;;;;;;;19.67;100.00;98646.84;5020533;28;20563;-60
2022/10/28 07:58:59;;;;;;;34.30;8.43;;;;;;;20.81;100.00;98682.22;5020450;28;20390;-60
2022/10/28 08:01:24;;;;;;;39.33;10.90;;;;;;;20.58;100.00;98719.09;5019643;28;20049;-59
2022/10/28 08:03:49;;;;;;;39.88;11.30;;;;;;;20.31;100.00;98694.56;5021148;28;20029;-59
2022/10/28 08:06:18;;;;;;;33.47;8.88;;;;;;;21.18;100.00;98712.19;5019864;28;20037;-59
2022/10/28 08:08:46;;;;;;;44.08;11.90;;;;;;;20.02;100.00;98685.03;5020542;28;20083;-59
2022/10/28 08:11:22;;;;;;;32.63;9.52;;;;;;;21.26;100.00;98716.09;5019523;28;20598;-59
2022/10/28 08:13:48;;;;;;;37.17;10.43;;;;;;;21.17;100.00;98709.66;5020662;28;20021;-59
2022/10/28 08:16:13;;;;;;;40.20;11.68;;;;;;;22.57;100.00;98700.88;5019982;28;20064;-59
2022/10/28 08:18:39;;;;;;;38.00;10.00;;;;;;;21.97;100.00;98693.06;5020355;28;20028;-59
2022/10/28 08:21:07;;;;;;;34.88;9.20;;;;;;;23.01;100.00;98715.06;5019418;28;20107;-60
2022/10/28 08:23:32;;;;;;;33.40;9.25;;;;;;;23.18;100.00;98711.94;5020269;28;20557;-59
2022/10/28 08:25:58;;;;;;;32.92;8.43;;;;;;;24.80;100.00;98711.59;5018856;28;20032;-59
2022/10/28 08:28:23;;;;;;;30.25;7.10;;;;;;;26.02;100.00;98721.97;5020179;28;20018;-59
2022/10/28 08:30:49;;;;;;;36.55;8.85;;;;;;;24.32;100.00;98723.72;5019585;28;20037;-58
2022/10/28 08:33:15;;;;;;;38.50;8.40;;;;;;;23.74;100.00;98707.34;5019907;28;20732;-57
2022/10/28 08:35:41;;;;;;;29.73;7.88;;;;;;;24.85;100.00;98711.19;5018219;28;20552;-58
2022/10/28 08:38:07;;;;;;;31.33;8.05;;;;;;;25.68;100.00;98695.72;5020104;28;20038;-60
2022/10/28 08:41:04;;;;;;;32.63;7.03;;;;;;;26.01;100.00;98713.13;5019085;28;20048;-60
2022/10/28 08:43:47;;;;;;;32.67;7.28;;;;;;;25.54;100.00;98727.19;5019732;28;20049;-58
2022/10/28 08:46:32;;;;;;;31.02;7.18;;;;;;;26.50;100.00;98718.31;5018888;28;20041;-60
2022/10/28 08:49:02;;;;;;;28.40;6.88;;;;;;;26.91;100.00;98721.56;5019527;28;20678;-58
2022/10/28 08:51:44;;;;;;;31.65;6.90;;;;;;;27.11;100.00;98727.59;5018253;28;20072;-60
2022/10/28 08:54:26;;;;;;;28.70;6.25;;;;;;;26.27;100.00;98718.69;5019845;28;20064;-58
2022/10/28 08:56:53;;;;;;;35.70;7.18;;;;;;;26.49;100.00;98719.31;5019110;28;20045;-60
2022/10/28 08:59:31;;;;;;;32.90;6.68;;;;;;;26.87;97.00;98717.47;5018437;28;20395;-58
2022/10/28 09:02:00;;;;;;;25.48;5.63;;;;;;;26.93;93.14;98719.56;5018359;28;20044;-61
2022/10/28 09:04:36;;;;;;;33.25;6.68;;;;;;;26.18;96.53;98714.22;5018513;28;20048;-62
2022/10/28 09:07:02;;;;;;;25.80;5.88;;;;;;;26.26;94.69;98710.81;5018971;28;20038;-60
2022/10/28 09:09:28;;;;;;;30.52;6.22;;;;;;;26.26;93.16;98706.28;5018344;28;20044;-60
2022/10/28 09:12:08;;;;;;;27.73;5.82;;;;;;;27.90;86.43;98703.78;5018891;28;20132;-59
2022/10/28 09:14:42;;;;;;;28.27;5.75;;;;;;;27.04;87.13;98695.25;5019074;28;20693;-61
2022/10/28 09:17:19;;;;;;;35.92;6.20;;;;;;;25.69;92.85;98692.03;5018473;28;20048;-59
2022/10/28 09:19:52;;;;;;;32.10;6.35;;;;;;;26.99;86.83;98694.03;5018681;28;20033;-59
2022/10/28 09:22:27;;;;;;;30.00;5.60;;;;;;;26.98;84.08;98690.47;5018172;28;20067;-58
2022/10/28 09:24:59;;;;;;;29.35;5.85;;;;;;;27.25;80.56;98686.09;5018662;28;20029;-58
2022/10/28 09:27:27;;;;;;;35.65;6.30;;;;;;;26.97;78.88;98694.19;5018165;28;20629;-59
2022/10/28 09:30:01;;;;;;;29.30;5.95;;;;;;;26.84;79.54;98691.03;5018378;28;20548;-60
2022/10/28 09:32:39;;;;;;;28.08;5.53;;;;;;;26.43;80.62;98694.00;5018238;28;20045;-59
2022/10/28 09:35:18;;;;;;;39.83;5.88;;;;;;;27.43;78.71;98703.03;5018994;28;20022;-60
2022/10/28 09:38:48;;;;;;;29.85;5.47;;;;;;;27.04;75.24;98694.44;5017859;28;20045;-62
2022/10/28 09:41:32;;;;;;;30.60;6.20;;;;;;;27.07;75.58;98696.78;4967904;28;20690;-59
2022/10/28 09:44:37;;;;;;;36.97;6.28;;;;;;;27.24;75.10;98695.09;5019053;28;20029;-61
2022/10/28 09:47:17;;;;;;;41.83;6.30;;;;;;;26.51;73.19;98695.94;5017353;28;20042;-61
2022/10/28 09:49:46;;;;;;;29.13;5.63;;;;;;;27.25;74.76;98692.28;5017983;28;20320;-62
2022/10/28 09:52:18;;;;;;;27.75;5.22;;;;;;;26.16;76.14;98697.47;5017552;28;20033;-60
2022/10/28 09:54:50;;;;;;;26.33;5.68;;;;;;;27.52;71.90;98700.44;5019078;28;20026;-59
2022/10/28 09:57:15;;;;;;;33.70;5.80;;;;;;;29.21;66.99;98701.78;5017237;28;20099;-60
2022/10/28 09:59:41;;;;;;;29.35;5.32;;;;;;;28.25;64.94;98692.97;5018539;28;20641;-60
2022/10/28 10:02:24;;;;;;;28.90;5.38;;;;;;;29.32;62.64;98693.38;5017214;28;20048;-60
2022/10/28 10:04:50;;;;;;;31.50;5.68;;;;;;;29.44;63.12;98690.38;5018617;28;20035;-59
2022/10/28 10:07:27;;;;;;;31.88;5.30;;;;;;;30.13;59.94;98694.41;5017398;28;20599;-60
2022/10/28 10:09:54;;;;;;;27.73;5.10;;;;;;;29.19;61.87;98688.50;5018156;28;20036;-62
2022/10/28 10:12:19;;;;;;;26.98;5.47;;;;;;;28.53;63.88;98687.44;5017531;28;20042;-59
2022/10/28 10:14:49;;;;;;;26.67;5.38;;;;;;;28.09;66.05;98686.66;5018526;28;20029;-59
2022/10/28 10:17:18;;;;;;;23.08;4.80;;;;;;;28.55;64.34;98684.59;5017405;28;20030;-59
2022/10/28 10:20:02;;;;;;;30.02;5.65;;;;;;;30.00;59.38;98686.03;5018230;28;20033;-60
2022/10/28 10:22:42;;;;;;;29.50;5.50;;;;;;;30.74;57.35;98688.50;5015848;28;20057;-59
2022/10/28 10:25:17;;;;;;;21.08;4.97;;;;;;;31.18;55.69;98692.50;5018221;28;20123;-59
2022/10/28 10:27:50;;;;;;;19.02;4.25;;;;;;;30.31;58.00;98685.25;5016855;28;20029;-63
2022/10/28 10:30:21;;;;;;;18.08;4.55;;;;;;;29.40;58.01;98685.31;5017411;28;20022;-61
2022/10/28 10:32:47;;;;;;;37.70;5.55;;;;;;;29.27;59.24;98684.16;5018038;28;20022;-59
2022/10/28 10:35:13;;;;;;;21.95;4.28;;;;;;;29.44;58.51;98682.31;5017084;28;20554;-60
2022/10/28 10:37:42;;;;;;;19.50;4.63;;;;;;;32.06;55.64;98689.31;5018017;28;20029;-63
2022/10/28 10:40:25;;;;;;;26.65;5.25;;;;;;;30.75;54.31;98680.25;5017395;28;20256;-62
2022/10/28 10:42:51;;;;;;;28.63;5.15;;;;;;;30.97;57.43;98693.13;5017363;28;20022;-58
2022/10/28 10:45:19;;;;;;;20.05;4.47;;;;;;;31.06;52.85;98692.94;5017279;28;20029;-60
2022/10/28 10:47:44;;;;;;;29.85;5.20;;;;;;;31.22;51.49;98685.75;5018266;28;20021;-59
2022/10/28 10:50:28;;;;;;;27.48;5.35;;;;;;;30.05;51.23;98682.81;5021017;28;20040;-60
2022/10/28 10:52:56;;;;;;;26.40;5.15;;;;;;;31.30;48.36;98678.44;5021433;28;20087;-58
2022/10/28 10:55:33;;;;;;;23.75;4.63;;;;;;;31.19;50.17;98686.94;5020759;28;20033;-60
2022/10/28 10:57:59;;;;;;;25.23;4.55;;;;;;;30.50;49.95;98681.38;5021047;28;20376;-60
2022/10/28 11:00:31;;;;;;;33.70;5.55;;;;;;;31.13;52.10;98676.88;5021138;28;20053;-61
2022/10/28 11:02:59;;;;;;;25.13;5.13;;;;;;;29.81;50.66;98676.44;5021008;28;20033;-60
2022/10/28 11:05:24;;;;;;;27.58;4.70;;;;;;;32.14;47.90;98665.97;5019702;28;20025;-60
2022/10/28 11:07:50;;;;;;;20.00;4.22;;;;;;;31.05;47.77;98663.47;5021532;28;20010;-61
2022/10/28 11:10:29;;;;;;;24.90;4.72;;;;;;;30.22;50.10;98665.63;5020901;28;20021;-61
2022/10/28 11:12:57;;;;;;;30.17;4.75;;;;;;;30.08;51.14;98656.41;5021366;28;20025;-60
2022/10/28 11:15:30;;;;;;;24.08;4.82;;;;;;;29.46;52.30;98645.34;5021123;28;20028;-60
2022/10/28 11:18:00;;;;;;;23.40;4.30;;;;;;;29.00;53.49;98635.03;5020663;28;20054;-60
2022/10/28 11:21:03;;;;;;;28.40;4.85;;;;;;;29.25;52.52;98638.66;5020426;28;20037;-61
2022/10/28 11:23:42;;;;;;;19.83;4.35;;;;;;;28.97;54.60;98625.47;5021678;28;20026;-64
2022/10/28 11:26:12;;;;;;;22.95;4.50;;;;;;;29.23;53.90;98612.97;5020891;28;20081;-61
2022/10/28 11:29:04;;;;;;;19.35;4.10;;;;;;;29.81;53.91;98617.28;5021821;28;20021;-60